createdAt,value
2023-04-12T00:00:12.094Z,14.03
2023-04-12T00:02:42.698Z,14.67
2023-04-12T00:05:14.184Z,13.80
2023-04-12T00:07:49.110Z,14.47
2023-04-12T00:10:17.857Z,14.70
2023-04-12T00:12:47.089Z,13.97
2023-04-12T00:15:15.909Z,14.23
2023-04-12T00:17:46.593Z,13.87
2023-04-12T00:20:16.690Z,14.43
2023-04-12T00:22:46.922Z,15.50
2023-04-12T00:25:15.633Z,14.63
2023-04-12T00:27:44.370Z,14.53
2023-04-12T00:30:13.866Z,14.70
2023-04-12T00:32:44.700Z,14.80
2023-04-12T00:35:13.711Z,13.47
2023-04-12T00:37:42.476Z,12.90
2023-04-12T00:40:14.191Z,13.10
2023-04-12T00:42:43.011Z,12.57
2023-04-12T00:45:12.688Z,12.43
2023-04-12T00:47:43.641Z,12.20
2023-04-12T00:50:13.447Z,12.00
2023-04-12T00:52:42.282Z,11.77
2023-04-12T00:55:12.661Z,10.87
2023-04-12T00:57:42.166Z,10.37
2023-04-12T01:00:13.776Z,10.00
2023-04-12T01:02:47.505Z,10.83
2023-04-12T01:05:22.129Z,9.87
2023-04-12T01:08:06.337Z,9.53
2023-04-12T01:10:43.449Z,10.33
2023-04-12T01:13:23.109Z,9.30
2023-04-12T01:15:57.096Z,9.67
2023-04-12T01:18:32.008Z,9.83
2023-04-12T01:21:08.051Z,9.63
2023-04-12T01:23:53.341Z,9.17
2023-04-12T01:26:34.638Z,9.00
2023-04-12T01:29:12.467Z,9.17
2023-04-12T01:31:43.140Z,9.40
2023-04-12T01:34:13.646Z,9.33
2023-04-12T01:36:46.306Z,9.40
2023-04-12T01:39:15.480Z,8.97
2023-04-12T01:41:45.779Z,8.83
2023-04-12T01:44:16.922Z,9.43
2023-04-12T01:46:47.675Z,10.10
2023-04-12T01:49:17.640Z,10.63
2023-04-12T01:51:53.826Z,9.73
2023-04-12T01:54:28.941Z,10.43
2023-04-12T01:57:02.124Z,10.10
2023-04-12T01:59:39.396Z,9.60
2023-04-12T02:02:08.985Z,9.77
2023-04-12T02:04:38.801Z,9.87
2023-04-12T02:07:07.558Z,9.67
2023-04-12T02:09:39.492Z,9.70
2023-04-12T02:12:09.155Z,9.43
2023-04-12T02:14:39.719Z,9.40
2023-04-12T02:17:08.783Z,10.00
2023-04-12T02:19:38.926Z,10.33
2023-04-12T02:22:08.560Z,10.17
2023-04-12T02:24:37.312Z,10.60
2023-04-12T02:27:06.245Z,9.43
2023-04-12T02:29:36.215Z,9.20
2023-04-12T02:32:06.680Z,9.47
2023-04-12T02:34:36.917Z,9.83
2023-04-12T02:37:23.719Z,9.50
2023-04-12T02:39:52.534Z,9.77
2023-04-12T02:42:22.798Z,10.40
2023-04-12T02:44:51.978Z,10.23
2023-04-12T02:47:22.977Z,10.40
2023-04-12T02:49:53.118Z,10.27
2023-04-12T02:52:24.311Z,11.17
2023-04-12T02:55:09.077Z,11.53
2023-04-12T02:57:37.956Z,11.70
2023-04-12T03:00:12.428Z,11.97
2023-04-12T03:02:51.658Z,12.30
2023-04-12T03:05:27.738Z,12.53
2023-04-12T03:07:57.349Z,12.30
2023-04-12T03:10:34.128Z,12.70
2023-04-12T03:13:05.101Z,13.33
2023-04-12T03:15:49.743Z,12.77
2023-04-12T03:18:23.660Z,13.07
2023-04-12T03:20:54.812Z,13.20
2023-04-12T03:23:24.127Z,14.30
2023-04-12T03:26:03.129Z,12.93
2023-04-12T03:28:35.796Z,12.97
2023-04-12T03:31:07.843Z,13.37
2023-04-12T03:33:57.146Z,12.60
2023-04-12T03:36:29.878Z,12.77
2023-04-12T03:39:07.095Z,13.77
2023-04-12T03:41:38.164Z,13.97
2023-04-12T03:44:07.801Z,15.47
2023-04-12T03:46:37.851Z,14.33
2023-04-12T03:49:12.748Z,13.87
2023-04-12T03:51:43.901Z,14.33
2023-04-12T03:54:14.107Z,13.53
2023-04-12T03:56:56.870Z,14.30
2023-04-12T03:59:41.856Z,13.17
2023-04-12T04:02:11.559Z,14.40
2023-04-12T04:04:48.642Z,14.27
2023-04-12T04:07:26.553Z,13.70
2023-04-12T04:09:57.534Z,14.83
2023-04-12T04:12:30.102Z,15.63
2023-04-12T04:14:59.685Z,14.90
2023-04-12T04:17:32.404Z,16.83
2023-04-12T04:20:05.578Z,16.00
2023-04-12T04:22:37.198Z,16.07
2023-04-12T04:25:07.221Z,14.87
2023-04-12T04:27:40.516Z,14.77
2023-04-12T04:30:11.959Z,16.50
2023-04-12T04:32:46.249Z,16.57
2023-04-12T04:35:18.547Z,17.73
2023-04-12T04:38:02.038Z,17.47
2023-04-12T04:40:31.148Z,16.73
2023-04-12T04:43:00.464Z,16.57
2023-04-12T04:45:33.893Z,15.77
2023-04-12T04:48:03.766Z,15.20
2023-04-12T04:50:34.128Z,14.87
2023-04-12T04:53:04.111Z,13.97
2023-04-12T04:55:35.071Z,13.20
2023-04-12T04:58:03.879Z,12.03
2023-04-12T05:00:32.867Z,10.50
2023-04-12T05:03:03.387Z,12.27
2023-04-12T05:05:33.799Z,12.13
2023-04-12T05:08:10.435Z,11.23
2023-04-12T05:10:39.245Z,10.80
2023-04-12T05:13:10.099Z,11.67
2023-04-12T05:15:42.560Z,11.43
2023-04-12T05:18:11.353Z,11.80
2023-04-12T05:20:41.925Z,13.07
2023-04-12T05:23:10.827Z,12.77
2023-04-12T05:25:47.041Z,12.73
2023-04-12T05:28:17.646Z,14.17
2023-04-12T05:30:46.985Z,14.40
2023-04-12T05:33:20.914Z,13.60
2023-04-12T05:35:52.341Z,14.27
2023-04-12T05:38:21.902Z,14.07
2023-04-12T05:40:58.024Z,14.80
2023-04-12T05:43:26.876Z,14.07
2023-04-12T05:45:56.358Z,13.97
2023-04-12T05:48:25.781Z,14.20
2023-04-12T05:50:58.366Z,13.47
2023-04-12T05:53:29.964Z,14.20
2023-04-12T05:56:02.109Z,12.43
2023-04-12T05:58:31.660Z,13.20
2023-04-12T06:01:01.064Z,13.07
2023-04-12T06:03:32.546Z,13.53
2023-04-12T06:06:11.980Z,13.30
2023-04-12T06:08:42.490Z,12.70
2023-04-12T06:11:12.268Z,13.07
2023-04-12T06:13:43.137Z,13.87
2023-04-12T06:16:12.171Z,12.37
2023-04-12T06:18:41.366Z,12.93
2023-04-12T06:21:11.596Z,15.83
2023-04-12T06:23:41.992Z,15.43
2023-04-12T06:26:11.470Z,14.67
2023-04-12T06:28:40.949Z,14.53
2023-04-12T06:31:09.794Z,13.37
2023-04-12T06:33:40.876Z,12.77
2023-04-12T06:36:15.817Z,12.27
2023-04-12T06:38:44.518Z,11.73
2023-04-12T06:41:13.453Z,12.07
2023-04-12T06:43:42.211Z,12.57
2023-04-12T06:46:10.945Z,13.50
2023-04-12T06:48:40.854Z,13.73
2023-04-12T06:51:10.153Z,12.93
2023-04-12T06:53:40.478Z,11.73
2023-04-12T06:56:09.985Z,12.07
2023-04-12T06:58:38.730Z,11.90
2023-04-12T07:01:07.954Z,11.87
2023-04-12T07:03:36.887Z,11.40
2023-04-12T07:06:17.763Z,11.07
2023-04-12T07:08:54.582Z,10.77
2023-04-12T07:11:24.039Z,10.83
2023-04-12T07:13:52.881Z,11.27
2023-04-12T07:16:21.645Z,10.53
2023-04-12T07:18:50.616Z,10.07
2023-04-12T07:21:19.355Z,11.37
2023-04-12T07:23:51.334Z,10.70
2023-04-12T07:26:22.391Z,11.03
2023-04-12T07:28:51.174Z,10.37
2023-04-12T07:31:19.954Z,10.90
2023-04-12T07:33:48.779Z,10.50
2023-04-12T07:36:21.420Z,10.87
2023-04-12T07:38:55.434Z,10.07
2023-04-12T07:41:26.169Z,11.20
2023-04-12T07:43:55.004Z,10.43
2023-04-12T07:46:23.822Z,10.83
2023-04-12T07:48:53.490Z,11.13
2023-04-12T07:51:22.232Z,10.53
2023-04-12T07:53:51.872Z,11.40
2023-04-12T07:56:20.597Z,12.20
2023-04-12T07:58:50.857Z,11.10
2023-04-12T08:01:19.588Z,11.13
2023-04-12T08:03:49.033Z,10.77
2023-04-12T08:06:18.596Z,10.60
2023-04-12T08:08:47.438Z,9.40
2023-04-12T08:11:16.299Z,9.67
2023-04-12T08:13:44.998Z,10.33
2023-04-12T08:16:15.152Z,9.00
2023-04-12T08:18:43.989Z,8.83
2023-04-12T08:21:12.836Z,8.83
2023-04-12T08:23:41.566Z,9.50
2023-04-12T08:26:10.770Z,8.60
2023-04-12T08:28:39.993Z,8.73
2023-04-12T08:31:09.354Z,8.00
2023-04-12T08:33:41.017Z,8.37
2023-04-12T08:36:10.772Z,8.13
2023-04-12T08:38:45.762Z,8.27
2023-04-12T08:41:15.425Z,8.43
2023-04-12T08:43:47.599Z,9.10
2023-04-12T08:46:17.740Z,8.50
2023-04-12T08:48:49.348Z,8.70
2023-04-12T08:51:19.478Z,8.63
2023-04-12T08:53:48.550Z,8.17
2023-04-12T08:56:18.288Z,8.17
2023-04-12T08:58:49.318Z,8.33
2023-04-12T09:01:19.223Z,7.70
2023-04-12T09:03:49.908Z,7.33
2023-04-12T09:06:18.815Z,7.77
2023-04-12T09:08:54.947Z,7.17
2023-04-12T09:11:25.923Z,7.80
2023-04-12T09:13:56.534Z,7.17
2023-04-12T09:16:38.667Z,7.33
2023-04-12T09:19:09.612Z,7.37
2023-04-12T09:21:39.007Z,6.83
2023-04-12T09:24:14.229Z,6.63
2023-04-12T09:26:43.697Z,6.63
2023-04-12T09:29:26.311Z,7.07
2023-04-12T09:32:01.891Z,6.27
2023-04-12T09:34:32.641Z,5.90
2023-04-12T09:37:01.487Z,6.20
2023-04-12T09:39:34.130Z,6.70
2023-04-12T09:42:14.855Z,6.20
2023-04-12T09:44:54.980Z,6.77
2023-04-12T09:47:25.171Z,6.30
2023-04-12T09:49:55.913Z,6.80
2023-04-12T09:52:24.667Z,7.27
2023-04-12T09:54:54.825Z,7.23
2023-04-12T09:57:26.765Z,7.13
2023-04-12T10:00:00.379Z,8.13
2023-04-12T10:02:30.337Z,7.90
2023-04-12T10:05:01.034Z,7.68
2023-04-12T10:07:30.029Z,7.80
2023-04-12T10:10:01.200Z,7.88
2023-04-12T10:12:30.343Z,7.03
2023-04-12T10:15:00.399Z,7.95
2023-04-12T10:17:29.266Z,7.47
2023-04-12T10:20:00.046Z,7.65
2023-04-12T10:22:28.883Z,7.50
2023-04-12T10:24:58.209Z,6.88
2023-04-12T10:27:28.994Z,7.60
2023-04-12T10:30:20.940Z,9.00
2023-04-12T10:32:51.297Z,7.10
2023-04-12T10:35:21.873Z,7.38
2023-04-12T10:38:01.561Z,6.93
2023-04-12T10:40:31.810Z,8.30
2023-04-12T10:43:29.101Z,7.53
2023-04-12T10:45:59.147Z,8.27
2023-04-12T10:48:32.639Z,7.67
2023-04-12T10:51:23.546Z,8.70
2023-04-12T10:53:52.997Z,12.68
2023-04-12T10:56:43.415Z,8.27
2023-04-12T10:59:18.075Z,7.67
2023-04-12T11:02:13.105Z,7.53
2023-04-12T11:05:05.507Z,7.27
2023-04-12T11:07:55.605Z,7.53
2023-04-12T11:10:43.549Z,7.90
2023-04-12T11:13:18.412Z,8.70
2023-04-12T11:15:47.628Z,9.00
2023-04-12T11:18:16.648Z,8.80
2023-04-12T11:20:46.693Z,7.93
2023-04-12T11:23:17.159Z,7.70
2023-04-12T11:25:50.927Z,8.87
2023-04-12T11:28:28.885Z,8.67
2023-04-12T11:31:00.043Z,8.43
2023-04-12T11:33:35.857Z,8.73
2023-04-12T11:36:08.786Z,8.43
2023-04-12T11:38:39.231Z,8.25
2023-04-12T11:41:09.708Z,8.50
2023-04-12T11:43:39.072Z,8.15
2023-04-12T11:46:09.260Z,8.82
2023-04-12T11:48:39.045Z,9.23
2023-04-12T11:51:21.218Z,8.63
2023-04-12T11:53:57.206Z,7.80
2023-04-12T11:56:26.631Z,8.35
2023-04-12T11:58:55.383Z,6.72
2023-04-12T12:01:24.883Z,8.18
2023-04-12T12:03:54.060Z,7.68
2023-04-12T12:06:26.524Z,8.07
2023-04-12T12:08:57.634Z,8.48
2023-04-12T12:11:27.355Z,8.73
2023-04-12T12:13:58.544Z,7.03
2023-04-12T12:16:29.127Z,6.47
2023-04-12T12:18:58.759Z,7.80
2023-04-12T12:21:28.659Z,8.20
2023-04-12T12:23:59.569Z,7.65
2023-04-12T12:26:30.646Z,7.07
2023-04-12T12:29:00.940Z,7.30
2023-04-12T12:31:30.023Z,8.00
2023-04-12T12:34:00.346Z,7.70
2023-04-12T12:36:33.623Z,7.60
2023-04-12T12:39:10.812Z,7.45
2023-04-12T12:41:40.834Z,7.68
2023-04-12T12:44:11.352Z,7.88
2023-04-12T12:46:53.347Z,7.80
2023-04-12T12:49:25.905Z,7.82
2023-04-12T12:51:54.742Z,7.40
2023-04-12T12:57:01.520Z,7.95
2023-04-12T12:59:30.284Z,8.13
2023-04-12T13:01:59.189Z,7.72
2023-04-12T13:04:28.294Z,7.55
2023-04-12T13:06:57.108Z,7.32
2023-04-12T13:09:27.331Z,8.10
2023-04-12T13:11:57.297Z,7.32
2023-04-12T13:14:26.305Z,7.93
2023-04-12T13:16:55.080Z,8.95
2023-04-12T13:19:23.851Z,7.97
2023-04-12T13:21:53.359Z,8.40
2023-04-12T13:24:22.165Z,8.30
2023-04-12T13:26:52.519Z,8.25
2023-04-12T13:29:21.211Z,8.40
2023-04-12T13:31:50.010Z,8.27
2023-04-12T13:34:18.977Z,7.78
2023-04-12T13:36:47.697Z,8.50
2023-04-12T13:39:16.428Z,7.70
2023-04-12T13:41:45.407Z,8.38
2023-04-12T13:44:15.599Z,9.35
2023-04-12T13:46:44.387Z,8.25
2023-04-12T13:49:13.284Z,8.38
2023-04-12T13:51:42.063Z,8.63
2023-04-12T13:54:10.867Z,9.02
2023-04-12T13:56:39.598Z,9.25
2023-04-12T13:59:08.328Z,9.02
2023-04-12T14:01:38.662Z,9.88
2023-04-12T14:04:09.055Z,9.15
2023-04-12T14:06:38.891Z,9.70
2023-04-12T14:09:07.615Z,9.43
2023-04-12T14:11:49.237Z,9.32
2023-04-12T14:14:17.977Z,9.48
2023-04-12T14:16:48.265Z,8.52
2023-04-12T14:19:17.206Z,8.38
2023-04-12T14:21:46.018Z,8.80
2023-04-12T14:24:14.895Z,8.65
2023-04-12T14:26:43.892Z,8.40
2023-04-12T14:29:13.680Z,9.18
2023-04-12T14:31:42.517Z,8.68
2023-04-12T14:34:13.634Z,9.73
2023-04-12T14:36:42.353Z,9.15
2023-04-12T14:39:13.243Z,9.60
2023-04-12T14:41:43.189Z,9.32
2023-04-12T14:44:11.914Z,9.10
2023-04-12T14:46:40.872Z,9.50
2023-04-12T14:49:09.660Z,8.75
2023-04-12T14:51:39.873Z,9.02
2023-04-12T14:54:08.712Z,10.40
2023-04-12T14:56:43.352Z,9.25
2023-04-12T14:59:13.986Z,8.98
2023-04-12T15:01:43.523Z,8.55
2023-04-12T15:04:13.257Z,8.45
2023-04-12T15:06:45.904Z,9.43
2023-04-12T15:09:15.836Z,8.65
2023-04-12T15:11:46.918Z,8.57
2023-04-12T15:14:20.116Z,8.15
2023-04-12T15:16:50.462Z,8.52
2023-04-12T15:19:22.829Z,8.85
2023-04-12T15:21:55.465Z,8.45
2023-04-12T15:24:24.825Z,8.10
2023-04-12T15:26:54.482Z,8.25
2023-04-12T15:29:24.477Z,8.23
2023-04-12T15:31:53.509Z,7.78
2023-04-12T15:34:23.714Z,7.80
2023-04-12T15:36:53.940Z,7.80
2023-04-12T15:39:23.015Z,8.23
2023-04-12T15:41:54.800Z,7.93
2023-04-12T15:44:25.714Z,7.57
2023-04-12T15:47:09.880Z,8.80
2023-04-12T15:49:40.552Z,8.70
2023-04-12T15:52:10.804Z,8.35
2023-04-12T15:54:43.602Z,8.35
2023-04-12T15:57:12.752Z,7.60
2023-04-12T15:59:42.150Z,8.20
2023-04-12T16:02:11.150Z,8.63
2023-04-12T16:04:40.757Z,8.13
2023-04-12T16:07:11.777Z,8.20
2023-04-12T16:09:41.011Z,8.10
2023-04-12T16:12:09.762Z,7.68
2023-04-12T16:14:39.519Z,7.95
2023-04-12T16:17:08.727Z,8.20
2023-04-12T16:19:37.711Z,8.00
2023-04-12T16:22:06.570Z,7.75
2023-04-12T16:24:37.586Z,7.68
2023-04-12T16:27:07.275Z,8.35
2023-04-12T16:29:36.092Z,8.82
2023-04-12T16:32:04.983Z,8.18
2023-04-12T16:34:33.845Z,9.38
2023-04-12T16:37:02.852Z,9.40
2023-04-12T16:39:32.360Z,8.65
2023-04-12T16:42:06.456Z,9.20
2023-04-12T16:44:35.257Z,8.60
2023-04-12T16:47:04.166Z,8.80
2023-04-12T16:49:33.454Z,10.02
2023-04-12T16:52:02.781Z,9.43
2023-04-12T16:54:31.758Z,9.85
2023-04-12T16:57:02.070Z,10.35
2023-04-12T16:59:33.534Z,10.88
2023-04-12T17:02:02.322Z,11.00
2023-04-12T17:04:31.760Z,9.68
2023-04-12T17:07:00.521Z,7.63
2023-04-12T17:09:29.356Z,7.65
2023-04-12T17:11:58.076Z,9.48
2023-04-12T17:14:30.114Z,8.40
2023-04-12T17:16:58.916Z,6.93
2023-04-12T17:19:27.612Z,6.90
2023-04-12T17:21:56.352Z,7.65
2023-04-12T17:24:25.550Z,6.90
2023-04-12T17:26:54.649Z,7.63
2023-04-12T17:29:23.546Z,7.50
2023-04-12T17:31:55.026Z,7.10
2023-04-12T17:34:23.934Z,7.10
2023-04-12T17:36:55.328Z,7.23
2023-04-12T17:39:24.117Z,7.57
2023-04-12T17:41:52.815Z,7.17
2023-04-12T17:44:21.561Z,6.90
2023-04-12T17:46:50.303Z,6.83
2023-04-12T17:49:20.537Z,7.33
2023-04-12T17:51:49.295Z,6.60
2023-04-12T17:54:18.336Z,7.20
2023-04-12T17:56:49.637Z,7.90
2023-04-12T17:59:18.456Z,8.43
2023-04-12T18:01:47.618Z,9.50
2023-04-12T18:04:16.733Z,8.77
2023-04-12T18:06:47.068Z,7.57
2023-04-12T18:09:15.988Z,6.97
2023-04-12T18:11:44.678Z,7.47
2023-04-12T18:14:13.809Z,6.73
2023-04-12T18:16:42.617Z,7.43
2023-04-12T18:19:11.671Z,7.37
2023-04-12T18:21:40.386Z,7.87
2023-04-12T18:24:10.905Z,8.13
2023-04-12T18:26:39.668Z,8.67
2023-04-12T18:29:08.427Z,7.33
2023-04-12T18:31:42.357Z,7.20
2023-04-12T18:34:11.202Z,7.27
2023-04-12T18:36:40.016Z,7.53
2023-04-12T18:39:11.250Z,7.77
2023-04-12T18:41:41.087Z,7.10
2023-04-12T18:44:13.322Z,10.50
2023-04-12T18:46:42.350Z,9.97
2023-04-12T18:49:11.921Z,11.30
2023-04-12T18:51:40.672Z,10.43
2023-04-12T18:54:13.962Z,10.93
2023-04-12T18:56:43.519Z,11.80
2023-04-12T18:59:17.749Z,10.73
2023-04-12T19:01:47.401Z,14.90
2023-04-12T19:04:16.709Z,15.83
2023-04-12T19:06:47.454Z,13.57
2023-04-12T19:09:17.811Z,12.43
2023-04-12T19:11:47.356Z,12.50
2023-04-12T19:14:16.292Z,13.00
2023-04-12T19:16:45.339Z,13.67
2023-04-12T19:19:14.755Z,11.80
2023-04-12T19:21:43.928Z,13.93
2023-04-12T19:24:13.424Z,16.37
2023-04-12T19:26:47.777Z,18.03
2023-04-12T19:29:20.889Z,17.60
2023-04-12T19:31:52.303Z,17.07
2023-04-12T19:34:23.304Z,17.33
2023-04-12T19:36:57.196Z,17.53
2023-04-12T19:39:28.860Z,18.23
2023-04-12T19:42:00.006Z,15.90
2023-04-12T19:44:32.785Z,15.33
2023-04-12T19:47:02.576Z,15.37
2023-04-12T19:49:33.565Z,16.73
2023-04-12T19:52:16.316Z,15.00
2023-04-12T19:54:45.604Z,15.53
2023-04-12T19:57:18.140Z,14.97
2023-04-12T19:59:47.136Z,15.07
2023-04-12T20:02:21.204Z,15.93
2023-04-12T20:04:51.532Z,15.33
2023-04-12T20:07:22.207Z,15.90
2023-04-12T20:09:52.916Z,16.20
2023-04-12T20:12:24.428Z,15.27
2023-04-12T20:14:55.376Z,15.40
2023-04-12T20:17:26.840Z,17.70
2023-04-12T20:19:56.970Z,17.03
2023-04-12T20:22:27.683Z,15.03
2023-04-12T20:25:00.242Z,15.57
2023-04-12T20:27:41.274Z,14.40
2023-04-12T20:30:17.830Z,14.67
2023-04-12T20:32:49.528Z,27.33
2023-04-12T20:35:18.994Z,66.30
2023-04-12T20:37:50.504Z,60.20
2023-04-12T20:40:20.719Z,49.20
2023-04-12T20:42:52.326Z,35.07
2023-04-12T20:45:21.921Z,32.87
2023-04-12T20:47:51.429Z,25.40
2023-04-12T20:50:23.222Z,26.10
2023-04-12T20:52:54.905Z,21.30
2023-04-12T20:55:25.332Z,19.43
2023-04-12T20:57:56.295Z,17.37
2023-04-12T21:00:25.717Z,18.00
2023-04-12T21:02:54.949Z,18.60
2023-04-12T21:05:24.344Z,16.60
2023-04-12T21:07:53.147Z,17.00
2023-04-12T21:10:22.415Z,15.63
2023-04-12T21:12:51.941Z,15.40
2023-04-12T21:15:23.117Z,15.17
2023-04-12T21:17:52.493Z,15.20
2023-04-12T21:20:21.638Z,15.57
2023-04-12T21:22:53.647Z,15.07
2023-04-12T21:25:23.073Z,14.67
2023-04-12T21:27:53.262Z,14.47
2023-04-12T21:30:23.570Z,13.80
2023-04-12T21:32:53.712Z,16.13
2023-04-12T21:35:23.233Z,15.47
2023-04-12T21:37:52.580Z,15.73
2023-04-12T21:40:21.342Z,15.97
2023-04-12T21:42:50.158Z,16.53
2023-04-12T21:45:19.679Z,20.37
2023-04-12T21:47:50.420Z,54.33
2023-04-12T21:50:19.220Z,35.23
2023-04-12T21:52:48.058Z,21.90
2023-04-12T21:55:16.920Z,20.10
2023-04-12T21:57:47.075Z,19.13
2023-04-12T22:00:18.484Z,18.70
2023-04-12T22:02:47.500Z,19.17
2023-04-12T22:05:18.152Z,23.83
2023-04-12T22:07:47.855Z,33.73
2023-04-12T22:10:16.507Z,30.87
2023-04-12T22:12:50.696Z,27.20
2023-04-12T22:15:19.727Z,27.07
2023-04-12T22:17:48.602Z,33.50
2023-04-12T22:20:19.028Z,28.73
2023-04-12T22:22:48.621Z,22.20
2023-04-12T22:25:18.665Z,21.73
2023-04-12T22:27:48.190Z,20.93
2023-04-12T22:30:17.087Z,20.07
2023-04-12T22:32:45.885Z,22.03
2023-04-12T22:35:14.933Z,20.13
2023-04-12T22:37:46.026Z,22.37
2023-04-12T22:40:15.003Z,22.83
2023-04-12T22:42:46.975Z,21.47
2023-04-12T22:45:16.394Z,19.77
2023-04-12T22:47:45.441Z,20.77
2023-04-12T22:50:14.534Z,21.40
2023-04-12T22:52:44.776Z,21.27
2023-04-12T22:55:16.986Z,21.20
2023-04-12T22:57:47.190Z,20.77
2023-04-12T23:00:18.279Z,21.50
2023-04-12T23:02:48.805Z,20.83
2023-04-12T23:05:17.836Z,21.07
2023-04-12T23:07:49.276Z,25.97
2023-04-12T23:10:18.394Z,22.10
2023-04-12T23:12:49.295Z,21.50
2023-04-12T23:15:18.260Z,21.87
2023-04-12T23:17:47.057Z,21.10
2023-04-12T23:20:16.034Z,21.50
2023-04-12T23:22:57.783Z,19.33
2023-04-12T23:25:39.485Z,20.67
2023-04-12T23:28:13.296Z,18.40
2023-04-12T23:30:44.993Z,17.23
2023-04-12T23:33:13.755Z,16.53
2023-04-12T23:35:43.861Z,16.10
2023-04-12T23:38:16.035Z,16.53
2023-04-12T23:40:46.986Z,15.17
2023-04-12T23:43:15.709Z,14.83
2023-04-12T23:45:44.462Z,15.03
2023-04-12T23:48:13.290Z,16.70
2023-04-12T23:50:42.069Z,20.30
2023-04-12T23:53:11.194Z,21.10
2023-04-12T23:55:39.973Z,18.50
2023-04-12T23:58:10.278Z,22.77
